sensor_id;sensor_type;location;lat;lon;timestamp;pressure;altitude;pressure_sealevel;temperature;humidity
21623;BME280;10973;46.706;12.340;2023-12-04T00:01:47;87597.19;;;-6.85;52.63
21623;BME280;10973;46.706;12.340;2023-12-04T00:04:15;87597.47;;;-6.87;52.71
21623;BME280;10973;46.706;12.340;2023-12-04T00:06:42;87599.28;;;-6.92;53.02
21623;BME280;10973;46.706;12.340;2023-12-04T00:09:10;87597.75;;;-6.88;52.83
21623;BME280;10973;46.706;12.340;2023-12-04T00:11:38;87601.41;;;-7.04;52.98
21623;BME280;10973;46.706;12.340;2023-12-04T00:14:05;87595.19;;;-6.93;52.18
21623;BME280;10973;46.706;12.340;2023-12-04T00:16:36;87593.16;;;-6.96;52.57
21623;BME280;10973;46.706;12.340;2023-12-04T00:19:03;87588.53;;;-6.94;52.99
21623;BME280;10973;46.706;12.340;2023-12-04T00:21:31;87582.13;;;-6.92;53.00
21623;BME280;10973;46.706;12.340;2023-12-04T00:23:59;87579.06;;;-6.94;53.09
21623;BME280;10973;46.706;12.340;2023-12-04T00:26:26;87582.63;;;-6.95;53.09
21623;BME280;10973;46.706;12.340;2023-12-04T00:28:53;87577.75;;;-6.86;52.91
21623;BME280;10973;46.706;12.340;2023-12-04T00:31:21;87579.25;;;-6.80;52.66
21623;BME280;10973;46.706;12.340;2023-12-04T00:33:48;87565.47;;;-6.89;52.89
21623;BME280;10973;46.706;12.340;2023-12-04T00:36:16;87572.34;;;-6.85;52.51
21623;BME280;10973;46.706;12.340;2023-12-04T00:38:44;87562.63;;;-6.88;52.69
21623;BME280;10973;46.706;12.340;2023-12-04T00:41:11;87574.69;;;-6.88;52.95
21623;BME280;10973;46.706;12.340;2023-12-04T00:43:39;87568.53;;;-6.92;52.80
21623;BME280;10973;46.706;12.340;2023-12-04T00:46:06;87564.47;;;-6.98;52.40
21623;BME280;10973;46.706;12.340;2023-12-04T00:48:34;87560.84;;;-6.92;52.44
21623;BME280;10973;46.706;12.340;2023-12-04T00:51:02;87565.22;;;-6.93;52.52
21623;BME280;10973;46.706;12.340;2023-12-04T00:53:29;87562.91;;;-6.94;52.38
21623;BME280;10973;46.706;12.340;2023-12-04T00:55:58;87564.03;;;-7.10;52.26
21623;BME280;10973;46.706;12.340;2023-12-04T00:58:25;87567.63;;;-7.11;53.17
21623;BME280;10973;46.706;12.340;2023-12-04T01:00:53;87558.94;;;-7.15;53.10
21623;BME280;10973;46.706;12.340;2023-12-04T01:03:21;87559.22;;;-7.22;53.46
21623;BME280;10973;46.706;12.340;2023-12-04T01:05:48;87558.19;;;-7.16;53.28
21623;BME280;10973;46.706;12.340;2023-12-04T01:08:16;87556.06;;;-7.04;52.73
21623;BME280;10973;46.706;12.340;2023-12-04T01:10:43;87554.75;;;-7.01;52.56
21623;BME280;10973;46.706;12.340;2023-12-04T01:13:11;87548.72;;;-7.15;52.84
21623;BME280;10973;46.706;12.340;2023-12-04T01:15:38;87551.97;;;-7.05;52.62
21623;BME280;10973;46.706;12.340;2023-12-04T01:18:05;87552.00;;;-7.10;52.76
21623;BME280;10973;46.706;12.340;2023-12-04T01:20:33;87552.28;;;-7.16;53.08
21623;BME280;10973;46.706;12.340;2023-12-04T01:23:00;87552.38;;;-7.37;52.77
21623;BME280;10973;46.706;12.340;2023-12-04T01:25:28;87551.03;;;-7.24;52.72
21623;BME280;10973;46.706;12.340;2023-12-04T01:27:56;87549.22;;;-7.18;52.79
21623;BME280;10973;46.706;12.340;2023-12-04T01:30:23;87547.97;;;-7.26;52.97
21623;BME280;10973;46.706;12.340;2023-12-04T01:32:51;87555.72;;;-7.36;53.25
21623;BME280;10973;46.706;12.340;2023-12-04T01:35:19;87560.84;;;-7.36;52.98
21623;BME280;10973;46.706;12.340;2023-12-04T01:37:46;87565.63;;;-7.25;52.51
21623;BME280;10973;46.706;12.340;2023-12-04T01:40:14;87559.47;;;-7.23;52.65
21623;BME280;10973;46.706;12.340;2023-12-04T01:42:42;87558.72;;;-7.29;52.82
21623;BME280;10973;46.706;12.340;2023-12-04T01:45:10;87566.41;;;-7.29;52.63
21623;BME280;10973;46.706;12.340;2023-12-04T01:47:38;87560.56;;;-7.40;52.65
21623;BME280;10973;46.706;12.340;2023-12-04T01:50:07;87560.09;;;-7.47;52.42
21623;BME280;10973;46.706;12.340;2023-12-04T01:52:36;87564.19;;;-7.41;52.49
21623;BME280;10973;46.706;12.340;2023-12-04T01:55:06;87553.13;;;-7.31;52.37
21623;BME280;10973;46.706;12.340;2023-12-04T01:57:36;87548.50;;;-7.29;52.88
21623;BME280;10973;46.706;12.340;2023-12-04T02:00:04;87544.94;;;-7.33;53.05
21623;BME280;10973;46.706;12.340;2023-12-04T02:02:32;87533.13;;;-7.29;52.90
21623;BME280;10973;46.706;12.340;2023-12-04T02:05:01;87533.09;;;-7.19;52.83
21623;BME280;10973;46.706;12.340;2023-12-04T02:07:31;87533.88;;;-7.23;52.73
21623;BME280;10973;46.706;12.340;2023-12-04T02:09:59;87534.16;;;-7.20;52.76
21623;BME280;10973;46.706;12.340;2023-12-04T02:12:27;87530.25;;;-7.17;52.51
21623;BME280;10973;46.706;12.340;2023-12-04T02:14:55;87532.31;;;-7.14;52.75
21623;BME280;10973;46.706;12.340;2023-12-04T02:17:24;87528.75;;;-7.18;52.71
21623;BME280;10973;46.706;12.340;2023-12-04T02:19:54;87523.16;;;-7.26;53.19
21623;BME280;10973;46.706;12.340;2023-12-04T02:22:22;87529.84;;;-7.30;52.89
21623;BME280;10973;46.706;12.340;2023-12-04T02:24:49;87528.28;;;-7.26;53.33
21623;BME280;10973;46.706;12.340;2023-12-04T02:27:29;87525.22;;;-7.28;52.97
21623;BME280;10973;46.706;12.340;2023-12-04T02:30:01;87527.28;;;-7.35;52.73
21623;BME280;10973;46.706;12.340;2023-12-04T02:32:34;87531.13;;;-7.32;52.30
21623;BME280;10973;46.706;12.340;2023-12-04T02:35:06;87520.88;;;-7.32;52.59
21623;BME280;10973;46.706;12.340;2023-12-04T02:37:34;87520.91;;;-7.37;53.09
21623;BME280;10973;46.706;12.340;2023-12-04T02:40:03;87529.59;;;-7.33;52.90
21623;BME280;10973;46.706;12.340;2023-12-04T02:42:30;87521.19;;;-7.39;52.75
21623;BME280;10973;46.706;12.340;2023-12-04T02:44:58;87514.28;;;-7.43;53.00
21623;BME280;10973;46.706;12.340;2023-12-04T02:47:26;87508.63;;;-7.40;52.82
21623;BME280;10973;46.706;12.340;2023-12-04T02:49:53;87510.16;;;-7.34;52.63
21623;BME280;10973;46.706;12.340;2023-12-04T02:52:21;87514.69;;;-7.26;52.42
21623;BME280;10973;46.706;12.340;2023-12-04T02:54:48;87502.41;;;-7.29;52.82
21623;BME280;10973;46.706;12.340;2023-12-04T02:57:16;87507.81;;;-7.31;53.22
21623;BME280;10973;46.706;12.340;2023-12-04T02:59:43;87509.06;;;-7.23;53.01
21623;BME280;10973;46.706;12.340;2023-12-04T03:02:10;87495.47;;;-7.18;52.72
21623;BME280;10973;46.706;12.340;2023-12-04T03:04:38;87499.13;;;-7.30;52.80
21623;BME280;10973;46.706;12.340;2023-12-04T03:07:05;87502.69;;;-7.31;52.44
21623;BME280;10973;46.706;12.340;2023-12-04T03:09:33;87492.75;;;-7.37;53.14
21623;BME280;10973;46.706;12.340;2023-12-04T03:12:17;87487.94;;;-7.44;53.13
21623;BME280;10973;46.706;12.340;2023-12-04T03:14:44;87485.34;;;-7.39;52.89
21623;BME280;10973;46.706;12.340;2023-12-04T03:17:12;87492.03;;;-7.48;53.04
21623;BME280;10973;46.706;12.340;2023-12-04T03:19:39;87490.28;;;-7.52;52.95
21623;BME280;10973;46.706;12.340;2023-12-04T03:22:07;87488.75;;;-7.58;52.65
21623;BME280;10973;46.706;12.340;2023-12-04T03:24:35;87483.41;;;-7.57;52.93
21623;BME280;10973;46.706;12.340;2023-12-04T03:27:02;87488.00;;;-7.59;52.83
21623;BME280;10973;46.706;12.340;2023-12-04T03:29:30;87490.03;;;-7.56;52.77
21623;BME280;10973;46.706;12.340;2023-12-04T03:31:58;87497.00;;;-7.66;52.70
21623;BME280;10973;46.706;12.340;2023-12-04T03:34:25;87488.53;;;-7.62;52.40
21623;BME280;10973;46.706;12.340;2023-12-04T03:36:53;87484.69;;;-7.64;52.62
21623;BME280;10973;46.706;12.340;2023-12-04T03:39:21;87481.38;;;-7.65;52.73
21623;BME280;10973;46.706;12.340;2023-12-04T03:41:48;87482.16;;;-7.74;52.76
21623;BME280;10973;46.706;12.340;2023-12-04T03:44:15;87486.56;;;-7.85;52.96
21623;BME280;10973;46.706;12.340;2023-12-04T03:46:43;87490.13;;;-7.81;53.09
21623;BME280;10973;46.706;12.340;2023-12-04T03:49:11;87486.78;;;-7.76;52.67
21623;BME280;10973;46.706;12.340;2023-12-04T03:51:38;87493.97;;;-7.83;53.16
21623;BME280;10973;46.706;12.340;2023-12-04T03:54:06;87504.19;;;-7.83;52.71
21623;BME280;10973;46.706;12.340;2023-12-04T03:56:33;87499.28;;;-7.70;52.77
21623;BME280;10973;46.706;12.340;2023-12-04T03:59:01;87502.09;;;-7.61;52.25
21623;BME280;10973;46.706;12.340;2023-12-04T04:01:28;87509.75;;;-7.61;52.21
21623;BME280;10973;46.706;12.340;2023-12-04T04:03:56;87514.59;;;-7.60;51.90
21623;BME280;10973;46.706;12.340;2023-12-04T04:06:24;87515.94;;;-7.72;52.35
21623;BME280;10973;46.706;12.340;2023-12-04T04:08:51;87515.41;;;-7.69;52.26
21623;BME280;10973;46.706;12.340;2023-12-04T04:11:18;87517.19;;;-7.65;52.22
21623;BME280;10973;46.706;12.340;2023-12-04T04:13:46;87511.28;;;-7.60;52.71
21623;BME280;10973;46.706;12.340;2023-12-04T04:16:15;87512.56;;;-7.58;52.58
21623;BME280;10973;46.706;12.340;2023-12-04T04:18:43;87506.94;;;-7.60;52.84
21623;BME280;10973;46.706;12.340;2023-12-04T04:21:11;87510.25;;;-7.54;53.22
21623;BME280;10973;46.706;12.340;2023-12-04T04:23:38;87508.47;;;-7.59;53.28
21623;BME280;10973;46.706;12.340;2023-12-04T04:26:06;87508.44;;;-7.54;53.00
21623;BME280;10973;46.706;12.340;2023-12-04T04:28:33;87508.91;;;-7.47;53.39
21623;BME280;10973;46.706;12.340;2023-12-04T04:31:02;87506.84;;;-7.45;53.34
21623;BME280;10973;46.706;12.340;2023-12-04T04:33:29;87504.06;;;-7.48;53.11
21623;BME280;10973;46.706;12.340;2023-12-04T04:35:57;87507.63;;;-7.44;53.37
21623;BME280;10973;46.706;12.340;2023-12-04T04:38:24;87502.75;;;-7.41;53.07
21623;BME280;10973;46.706;12.340;2023-12-04T04:40:52;87498.66;;;-7.42;53.02
21623;BME280;10973;46.706;12.340;2023-12-04T04:43:20;87501.44;;;-7.38;52.89
21623;BME280;10973;46.706;12.340;2023-12-04T04:45:47;87507.09;;;-7.36;52.61
21623;BME280;10973;46.706;12.340;2023-12-04T04:48:16;87494.03;;;-7.40;52.59
21623;BME280;10973;46.706;12.340;2023-12-04T04:50:44;87479.97;;;-7.42;53.13
21623;BME280;10973;46.706;12.340;2023-12-04T04:53:11;87487.41;;;-7.41;53.60
21623;BME280;10973;46.706;12.340;2023-12-04T04:55:39;87485.38;;;-7.49;53.08
21623;BME280;10973;46.706;12.340;2023-12-04T04:58:16;87470.84;;;-7.58;53.33
21623;BME280;10973;46.706;12.340;2023-12-04T05:00:45;87464.22;;;-7.64;52.92
21623;BME280;10973;46.706;12.340;2023-12-04T05:03:13;87474.75;;;-7.66;53.10
21623;BME280;10973;46.706;12.340;2023-12-04T05:05:40;87474.50;;;-7.74;53.23
21623;BME280;10973;46.706;12.340;2023-12-04T05:08:08;87463.53;;;-7.80;53.13
21623;BME280;10973;46.706;12.340;2023-12-04T05:10:35;87478.38;;;-7.77;53.33
21623;BME280;10973;46.706;12.340;2023-12-04T05:13:02;87476.34;;;-7.90;53.39
21623;BME280;10973;46.706;12.340;2023-12-04T05:15:30;87474.06;;;-7.91;53.18
21623;BME280;10973;46.706;12.340;2023-12-04T05:17:58;87476.09;;;-7.88;53.23
21623;BME280;10973;46.706;12.340;2023-12-04T05:20:25;87477.38;;;-7.86;53.42
21623;BME280;10973;46.706;12.340;2023-12-04T05:22:53;87475.84;;;-7.92;53.29
21623;BME280;10973;46.706;12.340;2023-12-04T05:25:21;87464.81;;;-7.82;53.12
21623;BME280;10973;46.706;12.340;2023-12-04T05:27:49;87461.78;;;-7.89;53.24
21623;BME280;10973;46.706;12.340;2023-12-04T05:30:17;87467.09;;;-7.81;52.89
21623;BME280;10973;46.706;12.340;2023-12-04T05:32:44;87470.44;;;-7.85;53.25
21623;BME280;10973;46.706;12.340;2023-12-04T05:35:12;87463.28;;;-7.78;53.52
21623;BME280;10973;46.706;12.340;2023-12-04T05:37:40;87465.31;;;-7.75;52.99
21623;BME280;10973;46.706;12.340;2023-12-04T05:40:08;87462.47;;;-7.69;52.71
21623;BME280;10973;46.706;12.340;2023-12-04T05:42:37;87463.03;;;-7.82;53.23
21623;BME280;10973;46.706;12.340;2023-12-04T05:45:05;87460.47;;;-7.77;52.73
21623;BME280;10973;46.706;12.340;2023-12-04T05:47:33;87459.44;;;-7.76;52.14
21623;BME280;10973;46.706;12.340;2023-12-04T05:50:01;87459.50;;;-7.91;53.17
21623;BME280;10973;46.706;12.340;2023-12-04T05:52:29;87463.84;;;-7.91;53.02
21623;BME280;10973;46.706;12.340;2023-12-04T05:54:56;87462.81;;;-7.90;53.32
21623;BME280;10973;46.706;12.340;2023-12-04T05:57:24;87459.50;;;-7.96;53.01
21623;BME280;10973;46.706;12.340;2023-12-04T05:59:51;87471.25;;;-7.90;52.87
21623;BME280;10973;46.706;12.340;2023-12-04T06:02:19;87467.16;;;-7.86;52.96
21623;BME280;10973;46.706;12.340;2023-12-04T06:04:47;87467.38;;;-7.82;52.61
21623;BME280;10973;46.706;12.340;2023-12-04T06:07:15;87472.72;;;-7.79;52.91
21623;BME280;10973;46.706;12.340;2023-12-04T06:09:42;87468.41;;;-7.83;53.82
21623;BME280;10973;46.706;12.340;2023-12-04T06:12:10;87470.16;;;-7.79;53.90
21623;BME280;10973;46.706;12.340;2023-12-04T06:14:37;87464.53;;;-7.71;53.36
21623;BME280;10973;46.706;12.340;2023-12-04T06:17:05;87466.78;;;-7.64;53.86
21623;BME280;10973;46.706;12.340;2023-12-04T06:19:33;87467.53;;;-7.59;53.52
21623;BME280;10973;46.706;12.340;2023-12-04T06:22:00;87465.22;;;-7.55;53.69
21623;BME280;10973;46.706;12.340;2023-12-04T06:24:28;87460.88;;;-7.55;53.51
21623;BME280;10973;46.706;12.340;2023-12-04T06:26:56;87463.41;;;-7.50;53.57
21623;BME280;10973;46.706;12.340;2023-12-04T06:29:24;87454.19;;;-7.51;53.46
21623;BME280;10973;46.706;12.340;2023-12-04T06:31:52;87454.97;;;-7.50;54.19
21623;BME280;10973;46.706;12.340;2023-12-04T06:34:20;87456.25;;;-7.53;54.41
21623;BME280;10973;46.706;12.340;2023-12-04T06:36:49;87446.75;;;-7.47;53.99
21623;BME280;10973;46.706;12.340;2023-12-04T06:39:16;87446.22;;;-7.44;53.76
21623;BME280;10973;46.706;12.340;2023-12-04T06:41:45;87455.16;;;-7.42;54.49
21623;BME280;10973;46.706;12.340;2023-12-04T06:44:13;87446.50;;;-7.46;54.15
21623;BME280;10973;46.706;12.340;2023-12-04T06:46:48;87442.38;;;-7.47;54.57
21623;BME280;10973;46.706;12.340;2023-12-04T06:49:18;87439.84;;;-7.52;54.57
21623;BME280;10973;46.706;12.340;2023-12-04T06:51:46;87430.16;;;-7.55;54.63
21623;BME280;10973;46.706;12.340;2023-12-04T06:54:13;87433.44;;;-7.44;55.07
21623;BME280;10973;46.706;12.340;2023-12-04T06:56:41;87430.03;;;-7.35;54.76
21623;BME280;10973;46.706;12.340;2023-12-04T06:59:09;87425.88;;;-7.26;54.46
21623;BME280;10973;46.706;12.340;2023-12-04T07:01:36;87419.72;;;-7.25;55.02
21623;BME280;10973;46.706;12.340;2023-12-04T07:04:04;87424.63;;;-7.28;54.89
21623;BME280;10973;46.706;12.340;2023-12-04T07:06:31;87427.72;;;-7.31;54.85
21623;BME280;10973;46.706;12.340;2023-12-04T07:08:59;87419.19;;;-7.21;54.62
21623;BME280;10973;46.706;12.340;2023-12-04T07:11:26;87415.97;;;-7.32;54.61
21623;BME280;10973;46.706;12.340;2023-12-04T07:13:54;87410.53;;;-7.26;55.10
21623;BME280;10973;46.706;12.340;2023-12-04T07:16:21;87393.84;;;-7.18;55.24
21623;BME280;10973;46.706;12.340;2023-12-04T07:18:49;87409.72;;;-7.21;55.45
21623;BME280;10973;46.706;12.340;2023-12-04T07:21:18;87397.88;;;-7.12;55.63
21623;BME280;10973;46.706;12.340;2023-12-04T07:23:46;87396.06;;;-7.06;55.68
21623;BME280;10973;46.706;12.340;2023-12-04T07:26:14;87390.31;;;-6.93;55.73
21623;BME280;10973;46.706;12.340;2023-12-04T07:28:41;87384.75;;;-7.00;55.71
21623;BME280;10973;46.706;12.340;2023-12-04T07:31:09;87380.72;;;-7.06;55.22
21623;BME280;10973;46.706;12.340;2023-12-04T07:33:36;87379.91;;;-7.02;55.52
21623;BME280;10973;46.706;12.340;2023-12-04T07:36:04;87381.69;;;-7.02;56.35
21623;BME280;10973;46.706;12.340;2023-12-04T07:38:32;87387.03;;;-6.99;55.88
21623;BME280;10973;46.706;12.340;2023-12-04T07:40:59;87382.53;;;-6.83;55.72
21623;BME280;10973;46.706;12.340;2023-12-04T07:43:27;87377.81;;;-6.71;55.44
21623;BME280;10973;46.706;12.340;2023-12-04T07:45:57;87377.19;;;-6.58;55.02
21623;BME280;10973;46.706;12.340;2023-12-04T07:48:25;87372.50;;;-6.51;55.26
21623;BME280;10973;46.706;12.340;2023-12-04T07:50:53;87375.19;;;-6.61;55.76
21623;BME280;10973;46.706;12.340;2023-12-04T07:53:21;87376.31;;;-6.48;55.69
21623;BME280;10973;46.706;12.340;2023-12-04T07:55:49;87371.41;;;-6.45;55.81
21623;BME280;10973;46.706;12.340;2023-12-04T07:58:17;87372.47;;;-6.46;56.32
21623;BME280;10973;46.706;12.340;2023-12-04T08:00:45;87373.88;;;-6.35;56.03
21623;BME280;10973;46.706;12.340;2023-12-04T08:03:12;87361.00;;;-6.30;56.54
21623;BME280;10973;46.706;12.340;2023-12-04T08:05:40;87361.69;;;-6.24;56.53
21623;BME280;10973;46.706;12.340;2023-12-04T08:08:07;87371.09;;;-6.15;56.26
21623;BME280;10973;46.706;12.340;2023-12-04T08:10:35;87355.69;;;-6.15;56.68
21623;BME280;10973;46.706;12.340;2023-12-04T08:13:03;87360.38;;;-5.98;56.39
21623;BME280;10973;46.706;12.340;2023-12-04T08:15:30;87354.91;;;-5.92;56.94
21623;BME280;10973;46.706;12.340;2023-12-04T08:17:58;87353.22;;;-5.83;56.10
21623;BME280;10973;46.706;12.340;2023-12-04T08:20:25;87356.72;;;-5.73;56.11
21623;BME280;10973;46.706;12.340;2023-12-04T08:23:02;87346.88;;;-5.66;56.29
21623;BME280;10973;46.706;12.340;2023-12-04T08:25:30;87349.38;;;-5.61;56.69
21623;BME280;10973;46.706;12.340;2023-12-04T08:27:58;87351.78;;;-5.51;56.01
21623;BME280;10973;46.706;12.340;2023-12-04T08:30:26;87358.41;;;-5.45;56.91
21623;BME280;10973;46.706;12.340;2023-12-04T08:32:54;87353.03;;;-5.49;56.55
21623;BME280;10973;46.706;12.340;2023-12-04T08:35:22;87356.38;;;-5.48;57.13
21623;BME280;10973;46.706;12.340;2023-12-04T08:37:49;87360.38;;;-5.42;56.89
21623;BME280;10973;46.706;12.340;2023-12-04T08:40:17;87360.13;;;-5.41;56.89
21623;BME280;10973;46.706;12.340;2023-12-04T08:42:45;87353.09;;;-5.35;56.79
21623;BME280;10973;46.706;12.340;2023-12-04T08:45:13;87363.59;;;-5.32;56.48
21623;BME280;10973;46.706;12.340;2023-12-04T08:47:44;87360.66;;;-5.25;56.75
21623;BME280;10973;46.706;12.340;2023-12-04T08:50:11;87358.50;;;-5.18;56.81
21623;BME280;10973;46.706;12.340;2023-12-04T08:52:39;87367.59;;;-5.07;56.91
21623;BME280;10973;46.706;12.340;2023-12-04T08:55:07;87364.19;;;-5.02;57.16
21623;BME280;10973;46.706;12.340;2023-12-04T08:57:34;87365.84;;;-4.93;57.20
21623;BME280;10973;46.706;12.340;2023-12-04T09:00:03;87364.41;;;-4.85;56.94
21623;BME280;10973;46.706;12.340;2023-12-04T09:02:31;87364.06;;;-4.79;57.28
21623;BME280;10973;46.706;12.340;2023-12-04T09:04:59;87366.25;;;-4.72;57.52
21623;BME280;10973;46.706;12.340;2023-12-04T09:07:27;87361.81;;;-4.67;57.38
21623;BME280;10973;46.706;12.340;2023-12-04T09:09:59;87366.66;;;-4.65;57.10
21623;BME280;10973;46.706;12.340;2023-12-04T09:12:34;87367.28;;;-4.55;57.14
21623;BME280;10973;46.706;12.340;2023-12-04T09:15:02;87376.03;;;-4.42;57.50
21623;BME280;10973;46.706;12.340;2023-12-04T09:17:29;87365.38;;;-4.36;57.20
21623;BME280;10973;46.706;12.340;2023-12-04T09:20:06;87369.28;;;-4.24;57.17
21623;BME280;10973;46.706;12.340;2023-12-04T09:22:34;87358.75;;;-4.23;57.18
21623;BME280;10973;46.706;12.340;2023-12-04T09:25:16;87355.50;;;-4.15;57.09
21623;BME280;10973;46.706;12.340;2023-12-04T09:27:43;87352.28;;;-4.07;57.05
21623;BME280;10973;46.706;12.340;2023-12-04T09:30:11;87349.41;;;-4.05;57.23
21623;BME280;10973;46.706;12.340;2023-12-04T09:32:39;87342.91;;;-4.03;57.05
21623;BME280;10973;46.706;12.340;2023-12-04T09:35:07;87341.38;;;-4.04;57.12
21623;BME280;10973;46.706;12.340;2023-12-04T09:37:34;87339.09;;;-4.05;56.75
21623;BME280;10973;46.706;12.340;2023-12-04T09:40:02;87329.38;;;-3.95;56.94
21623;BME280;10973;46.706;12.340;2023-12-04T09:42:31;87330.06;;;-3.89;56.99
21623;BME280;10973;46.706;12.340;2023-12-04T09:44:59;87321.06;;;-3.78;57.27
21623;BME280;10973;46.706;12.340;2023-12-04T09:47:29;87315.16;;;-3.79;56.64
21623;BME280;10973;46.706;12.340;2023-12-04T09:49:57;87312.19;;;-3.72;56.97
21623;BME280;10973;46.706;12.340;2023-12-04T09:52:27;87308.75;;;-3.68;56.67
21623;BME280;10973;46.706;12.340;2023-12-04T09:54:55;87306.63;;;-3.66;56.58
21623;BME280;10973;46.706;12.340;2023-12-04T09:57:24;87301.88;;;-3.58;56.54
21623;BME280;10973;46.706;12.340;2023-12-04T09:59:52;87282.69;;;-3.52;56.17
21623;BME280;10973;46.706;12.340;2023-12-04T10:02:20;87275.53;;;-3.55;56.70
21623;BME280;10973;46.706;12.340;2023-12-04T10:04:48;87284.91;;;-3.59;56.50
21623;BME280;10973;46.706;12.340;2023-12-04T10:07:16;87283.16;;;-3.50;56.63
21623;BME280;10973;46.706;12.340;2023-12-04T10:09:43;87271.53;;;-3.48;57.03
21623;BME280;10973;46.706;12.340;2023-12-04T10:12:11;87263.38;;;-3.41;57.04
21623;BME280;10973;46.706;12.340;2023-12-04T10:14:38;87253.72;;;-3.36;56.97
21623;BME280;10973;46.706;12.340;2023-12-04T10:17:16;87269.22;;;-3.49;56.93
21623;BME280;10973;46.706;12.340;2023-12-04T10:19:44;87276.53;;;-3.43;57.01
21623;BME280;10973;46.706;12.340;2023-12-04T10:22:11;87249.16;;;-3.39;57.33
21623;BME280;10973;46.706;12.340;2023-12-04T10:24:39;87237.84;;;-3.29;57.02
21623;BME280;10973;46.706;12.340;2023-12-04T10:27:09;87247.16;;;-3.20;56.32
21623;BME280;10973;46.706;12.340;2023-12-04T10:29:46;87239.00;;;-3.13;55.75
21623;BME280;10973;46.706;12.340;2023-12-04T10:32:18;87237.56;;;-3.06;56.28
21623;BME280;10973;46.706;12.340;2023-12-04T10:34:47;87230.47;;;-3.00;56.26
21623;BME280;10973;46.706;12.340;2023-12-04T10:37:15;87225.19;;;-2.95;56.22
21623;BME280;10973;46.706;12.340;2023-12-04T10:39:51;87218.44;;;-2.82;56.18
21623;BME280;10973;46.706;12.340;2023-12-04T10:42:29;87218.66;;;-2.70;55.93
21623;BME280;10973;46.706;12.340;2023-12-04T10:44:58;87206.56;;;-2.61;55.57
21623;BME280;10973;46.706;12.340;2023-12-04T10:47:29;87206.28;;;-2.51;55.09
21623;BME280;10973;46.706;12.340;2023-12-04T10:49:57;87201.13;;;-2.43;55.15
21623;BME280;10973;46.706;12.340;2023-12-04T10:52:25;87192.50;;;-2.38;54.49
21623;BME280;10973;46.706;12.340;2023-12-04T10:54:53;87197.06;;;-2.35;54.15
21623;BME280;10973;46.706;12.340;2023-12-04T10:57:37;87211.34;;;-2.29;54.47
21623;BME280;10973;46.706;12.340;2023-12-04T11:00:05;87203.31;;;-2.28;54.53
21623;BME280;10973;46.706;12.340;2023-12-04T11:02:35;87184.34;;;-2.23;54.62
21623;BME280;10973;46.706;12.340;2023-12-04T11:05:08;87190.75;;;-2.21;54.58
21623;BME280;10973;46.706;12.340;2023-12-04T11:07:50;87176.00;;;-2.20;54.15
21623;BME280;10973;46.706;12.340;2023-12-04T11:10:53;87151.13;;;-2.16;53.94
21623;BME280;10973;46.706;12.340;2023-12-04T11:13:42;87148.84;;;-2.09;53.68
21623;BME280;10973;46.706;12.340;2023-12-04T11:16:24;87138.50;;;-2.09;54.04
21623;BME280;10973;46.706;12.340;2023-12-04T11:19:18;87129.72;;;-2.08;54.23
21623;BME280;10973;46.706;12.340;2023-12-04T11:21:46;87121.06;;;-2.03;54.12
21623;BME280;10973;46.706;12.340;2023-12-04T11:24:13;87126.09;;;-1.98;53.88
21623;BME280;10973;46.706;12.340;2023-12-04T11:26:42;87128.06;;;-1.95;53.40
21623;BME280;10973;46.706;12.340;2023-12-04T11:29:13;87132.63;;;-2.01;52.94
21623;BME280;10973;46.706;12.340;2023-12-04T11:31:41;87123.66;;;-2.03;53.79
21623;BME280;10973;46.706;12.340;2023-12-04T11:34:09;87125.00;;;-2.06;53.95
21623;BME280;10973;46.706;12.340;2023-12-04T11:36:38;87130.34;;;-2.02;54.39
21623;BME280;10973;46.706;12.340;2023-12-04T11:39:11;87130.16;;;-1.97;54.88
21623;BME280;10973;46.706;12.340;2023-12-04T11:41:41;87123.38;;;-1.93;55.26
21623;BME280;10973;46.706;12.340;2023-12-04T11:44:13;87116.97;;;-1.87;55.68
21623;BME280;10973;46.706;12.340;2023-12-04T11:46:56;87128.06;;;-1.78;55.60
21623;BME280;10973;46.706;12.340;2023-12-04T11:49:31;87127.75;;;-1.77;55.64
21623;BME280;10973;46.706;12.340;2023-12-04T11:52:00;87130.19;;;-1.72;55.70
21623;BME280;10973;46.706;12.340;2023-12-04T11:54:28;87135.97;;;-1.66;55.51
21623;BME280;10973;46.706;12.340;2023-12-04T11:59:38;87136.28;;;-1.59;55.88
21623;BME280;10973;46.706;12.340;2023-12-04T12:02:10;87140.81;;;-1.56;55.84
21623;BME280;10973;46.706;12.340;2023-12-04T12:04:39;87145.53;;;-1.58;56.09
21623;BME280;10973;46.706;12.340;2023-12-04T12:07:06;87137.94;;;-1.55;55.80
21623;BME280;10973;46.706;12.340;2023-12-04T12:09:34;87135.03;;;-1.53;55.54
21623;BME280;10973;46.706;12.340;2023-12-04T12:12:04;87126.97;;;-1.52;54.81
21623;BME280;10973;46.706;12.340;2023-12-04T12:14:31;87128.19;;;-1.49;54.53
21623;BME280;10973;46.706;12.340;2023-12-04T12:17:00;87119.38;;;-1.48;54.15
21623;BME280;10973;46.706;12.340;2023-12-04T12:19:27;87114.19;;;-1.39;54.26
21623;BME280;10973;46.706;12.340;2023-12-04T12:21:56;87115.25;;;-1.32;54.35
21623;BME280;10973;46.706;12.340;2023-12-04T12:24:24;87114.03;;;-1.26;54.25
21623;BME280;10973;46.706;12.340;2023-12-04T12:26:53;87104.75;;;-1.18;54.19
21623;BME280;10973;46.706;12.340;2023-12-04T12:29:21;87109.72;;;-1.13;54.03
21623;BME280;10973;46.706;12.340;2023-12-04T12:31:50;87108.78;;;-1.09;54.13
21623;BME280;10973;46.706;12.340;2023-12-04T12:34:18;87105.91;;;-1.07;54.37
21623;BME280;10973;46.706;12.340;2023-12-04T12:36:45;87098.28;;;-1.04;54.33
21623;BME280;10973;46.706;12.340;2023-12-04T12:39:13;87091.75;;;-1.01;53.57
21623;BME280;10973;46.706;12.340;2023-12-04T12:41:50;87096.91;;;-1.01;53.17
21623;BME280;10973;46.706;12.340;2023-12-04T12:44:18;87089.13;;;-0.93;52.61
21623;BME280;10973;46.706;12.340;2023-12-04T12:46:51;87084.38;;;-0.82;52.73
21623;BME280;10973;46.706;12.340;2023-12-04T12:49:19;87080.22;;;-0.75;52.67
21623;BME280;10973;46.706;12.340;2023-12-04T12:52:05;87073.06;;;-0.69;52.88
21623;BME280;10973;46.706;12.340;2023-12-04T12:54:44;87069.22;;;-0.63;53.35
21623;BME280;10973;46.706;12.340;2023-12-04T12:57:12;87065.41;;;-0.57;53.65
21623;BME280;10973;46.706;12.340;2023-12-04T12:59:40;87055.16;;;-0.53;53.65
21623;BME280;10973;46.706;12.340;2023-12-04T13:02:08;87056.38;;;-0.51;53.28